sensor_id;sensor_type;location;lat;lon;timestamp;P1;durP1;ratioP1;P2;durP2;ratioP2
66143;SDS011;52947;50.842;6.084;2022-11-20T00:00:52;41.40;;;17.83;;
66143;SDS011;52947;50.842;6.084;2022-11-20T00:03:20;35.80;;;17.98;;
66143;SDS011;52947;50.842;6.084;2022-11-20T00:05:48;39.97;;;18.77;;
66143;SDS011;52947;50.842;6.084;2022-11-20T00:08:16;37.13;;;17.85;;
66143;SDS011;52947;50.842;6.084;2022-11-20T00:10:44;40.70;;;18.55;;
66143;SDS011;52947;50.842;6.084;2022-11-20T00:13:12;39.97;;;18.67;;
66143;SDS011;52947;50.842;6.084;2022-11-20T00:15:39;37.65;;;18.77;;
66143;SDS011;52947;50.842;6.084;2022-11-20T00:18:08;39.63;;;19.38;;
66143;SDS011;52947;50.842;6.084;2022-11-20T00:20:36;41.60;;;19.23;;
66143;SDS011;52947;50.842;6.084;2022-11-20T00:23:04;36.08;;;19.38;;
66143;SDS011;52947;50.842;6.084;2022-11-20T00:25:33;42.90;;;19.40;;
66143;SDS011;52947;50.842;6.084;2022-11-20T00:28:01;37.33;;;19.27;;
66143;SDS011;52947;50.842;6.084;2022-11-20T00:30:29;38.72;;;18.90;;
66143;SDS011;52947;50.842;6.084;2022-11-20T00:32:57;40.70;;;19.60;;
66143;SDS011;52947;50.842;6.084;2022-11-20T00:35:26;37.97;;;17.95;;
66143;SDS011;52947;50.842;6.084;2022-11-20T00:37:54;36.35;;;18.73;;
66143;SDS011;52947;50.842;6.084;2022-11-20T00:40:21;38.97;;;18.88;;
66143;SDS011;52947;50.842;6.084;2022-11-20T00:42:49;38.45;;;17.88;;
66143;SDS011;52947;50.842;6.084;2022-11-20T00:45:17;39.53;;;18.67;;
66143;SDS011;52947;50.842;6.084;2022-11-20T00:47:45;36.47;;;18.17;;
66143;SDS011;52947;50.842;6.084;2022-11-20T00:50:12;35.10;;;17.65;;
66143;SDS011;52947;50.842;6.084;2022-11-20T00:52:42;39.10;;;18.52;;
66143;SDS011;52947;50.842;6.084;2022-11-20T00:55:09;35.80;;;19.20;;
66143;SDS011;52947;50.842;6.084;2022-11-20T00:57:37;33.55;;;17.88;;
66143;SDS011;52947;50.842;6.084;2022-11-20T01:00:06;38.47;;;17.90;;
66143;SDS011;52947;50.842;6.084;2022-11-20T01:05:02;34.50;;;17.60;;
66143;SDS011;52947;50.842;6.084;2022-11-20T01:07:30;34.45;;;17.73;;
66143;SDS011;52947;50.842;6.084;2022-11-20T01:10:00;35.70;;;16.88;;
66143;SDS011;52947;50.842;6.084;2022-11-20T01:12:28;34.83;;;18.70;;
66143;SDS011;52947;50.842;6.084;2022-11-20T01:14:56;34.13;;;17.00;;
66143;SDS011;52947;50.842;6.084;2022-11-20T01:17:23;34.47;;;16.98;;
66143;SDS011;52947;50.842;6.084;2022-11-20T01:19:51;33.83;;;16.77;;
66143;SDS011;52947;50.842;6.084;2022-11-20T01:22:19;30.25;;;16.60;;
66143;SDS011;52947;50.842;6.084;2022-11-20T01:24:47;36.83;;;18.00;;
66143;SDS011;52947;50.842;6.084;2022-11-20T01:27:16;30.48;;;17.48;;
66143;SDS011;52947;50.842;6.084;2022-11-20T01:29:44;34.50;;;18.08;;
66143;SDS011;52947;50.842;6.084;2022-11-20T01:32:11;36.78;;;17.05;;
66143;SDS011;52947;50.842;6.084;2022-11-20T01:34:39;30.65;;;16.08;;
66143;SDS011;52947;50.842;6.084;2022-11-20T01:37:07;34.30;;;17.20;;
66143;SDS011;52947;50.842;6.084;2022-11-20T01:39:35;28.73;;;16.08;;
66143;SDS011;52947;50.842;6.084;2022-11-20T01:42:02;34.33;;;17.92;;
66143;SDS011;52947;50.842;6.084;2022-11-20T01:44:54;31.45;;;17.38;;
66143;SDS011;52947;50.842;6.084;2022-11-20T01:47:28;37.88;;;18.83;;
66143;SDS011;52947;50.842;6.084;2022-11-20T01:50:00;33.67;;;16.92;;
66143;SDS011;52947;50.842;6.084;2022-11-20T01:52:33;28.50;;;16.13;;
66143;SDS011;52947;50.842;6.084;2022-11-20T01:55:04;35.58;;;16.92;;
66143;SDS011;52947;50.842;6.084;2022-11-20T01:57:34;32.25;;;16.42;;
66143;SDS011;52947;50.842;6.084;2022-11-20T02:00:05;35.20;;;16.40;;
66143;SDS011;52947;50.842;6.084;2022-11-20T02:02:38;30.95;;;16.80;;
66143;SDS011;52947;50.842;6.084;2022-11-20T02:05:19;28.73;;;16.10;;
66143;SDS011;52947;50.842;6.084;2022-11-20T02:07:51;30.38;;;16.52;;
66143;SDS011;52947;50.842;6.084;2022-11-20T02:10:21;32.20;;;15.95;;
66143;SDS011;52947;50.842;6.084;2022-11-20T02:12:49;31.38;;;15.35;;
66143;SDS011;52947;50.842;6.084;2022-11-20T02:15:36;32.80;;;16.70;;
66143;SDS011;52947;50.842;6.084;2022-11-20T02:18:04;31.55;;;16.17;;
66143;SDS011;52947;50.842;6.084;2022-11-20T02:20:33;28.92;;;15.55;;
66143;SDS011;52947;50.842;6.084;2022-11-20T02:23:02;29.75;;;16.48;;
66143;SDS011;52947;50.842;6.084;2022-11-20T02:25:36;30.08;;;16.30;;
66143;SDS011;52947;50.842;6.084;2022-11-20T02:28:05;31.08;;;15.90;;
66143;SDS011;52947;50.842;6.084;2022-11-20T02:30:33;32.25;;;16.27;;
66143;SDS011;52947;50.842;6.084;2022-11-20T02:33:01;27.52;;;14.77;;
66143;SDS011;52947;50.842;6.084;2022-11-20T02:35:39;30.55;;;16.17;;
66143;SDS011;52947;50.842;6.084;2022-11-20T02:38:09;29.02;;;17.33;;
66143;SDS011;52947;50.842;6.084;2022-11-20T02:40:39;30.07;;;15.60;;
66143;SDS011;52947;50.842;6.084;2022-11-20T02:45:35;32.75;;;16.52;;
66143;SDS011;52947;50.842;6.084;2022-11-20T02:48:03;28.88;;;17.55;;
66143;SDS011;52947;50.842;6.084;2022-11-20T02:50:33;31.98;;;16.17;;
66143;SDS011;52947;50.842;6.084;2022-11-20T02:53:00;32.50;;;16.50;;
66143;SDS011;52947;50.842;6.084;2022-11-20T02:55:28;32.88;;;15.95;;
66143;SDS011;52947;50.842;6.084;2022-11-20T02:57:57;29.42;;;16.20;;
66143;SDS011;52947;50.842;6.084;2022-11-20T03:00:25;32.95;;;16.83;;
66143;SDS011;52947;50.842;6.084;2022-11-20T03:02:53;31.77;;;16.15;;
66143;SDS011;52947;50.842;6.084;2022-11-20T03:05:21;30.45;;;16.38;;
66143;SDS011;52947;50.842;6.084;2022-11-20T03:07:49;31.73;;;16.30;;
66143;SDS011;52947;50.842;6.084;2022-11-20T03:10:17;29.65;;;16.05;;
66143;SDS011;52947;50.842;6.084;2022-11-20T03:12:44;30.00;;;16.83;;
66143;SDS011;52947;50.842;6.084;2022-11-20T03:15:14;32.10;;;16.55;;
66143;SDS011;52947;50.842;6.084;2022-11-20T03:20:09;30.02;;;16.50;;
66143;SDS011;52947;50.842;6.084;2022-11-20T03:22:38;30.90;;;16.05;;
66143;SDS011;52947;50.842;6.084;2022-11-20T03:25:06;30.60;;;16.58;;
66143;SDS011;52947;50.842;6.084;2022-11-20T03:27:34;31.93;;;16.47;;
66143;SDS011;52947;50.842;6.084;2022-11-20T03:30:02;31.98;;;16.15;;
66143;SDS011;52947;50.842;6.084;2022-11-20T03:35:00;38.97;;;20.27;;
66143;SDS011;52947;50.842;6.084;2022-11-20T03:37:28;40.85;;;20.45;;
66143;SDS011;52947;50.842;6.084;2022-11-20T03:39:56;44.35;;;21.00;;
66143;SDS011;52947;50.842;6.084;2022-11-20T03:42:23;34.42;;;18.08;;
66143;SDS011;52947;50.842;6.084;2022-11-20T03:45:09;33.55;;;17.85;;
66143;SDS011;52947;50.842;6.084;2022-11-20T03:47:38;38.00;;;19.25;;
66143;SDS011;52947;50.842;6.084;2022-11-20T03:50:06;35.47;;;17.98;;
66143;SDS011;52947;50.842;6.084;2022-11-20T03:52:35;41.58;;;19.63;;
66143;SDS011;52947;50.842;6.084;2022-11-20T03:55:03;38.20;;;19.92;;
66143;SDS011;52947;50.842;6.084;2022-11-20T03:57:31;33.60;;;18.73;;
66143;SDS011;52947;50.842;6.084;2022-11-20T03:59:59;35.47;;;19.38;;
66143;SDS011;52947;50.842;6.084;2022-11-20T04:02:29;39.30;;;19.60;;
66143;SDS011;52947;50.842;6.084;2022-11-20T04:04:58;34.20;;;18.15;;
66143;SDS011;52947;50.842;6.084;2022-11-20T04:07:26;34.80;;;19.30;;
66143;SDS011;52947;50.842;6.084;2022-11-20T04:09:54;37.67;;;19.50;;
66143;SDS011;52947;50.842;6.084;2022-11-20T04:12:22;22.23;;;11.85;;
66143;SDS011;52947;50.842;6.084;2022-11-20T04:14:50;33.65;;;17.13;;
66143;SDS011;52947;50.842;6.084;2022-11-20T04:17:17;30.23;;;16.27;;
66143;SDS011;52947;50.842;6.084;2022-11-20T04:19:45;35.20;;;16.58;;
66143;SDS011;52947;50.842;6.084;2022-11-20T04:22:15;27.45;;;16.90;;
66143;SDS011;52947;50.842;6.084;2022-11-20T04:24:42;26.95;;;15.48;;
66143;SDS011;52947;50.842;6.084;2022-11-20T04:27:10;24.23;;;14.63;;
66143;SDS011;52947;50.842;6.084;2022-11-20T04:29:38;25.58;;;14.40;;
66143;SDS011;52947;50.842;6.084;2022-11-20T04:32:06;26.15;;;13.90;;
66143;SDS011;52947;50.842;6.084;2022-11-20T04:34:34;24.15;;;13.25;;
66143;SDS011;52947;50.842;6.084;2022-11-20T04:37:01;27.85;;;14.80;;
66143;SDS011;52947;50.842;6.084;2022-11-20T04:39:31;23.13;;;13.02;;
66143;SDS011;52947;50.842;6.084;2022-11-20T04:41:58;24.77;;;13.45;;
66143;SDS011;52947;50.842;6.084;2022-11-20T04:44:40;25.48;;;13.85;;
66143;SDS011;52947;50.842;6.084;2022-11-20T04:47:08;25.10;;;13.48;;
66143;SDS011;52947;50.842;6.084;2022-11-20T04:49:35;24.38;;;13.50;;
66143;SDS011;52947;50.842;6.084;2022-11-20T04:52:03;25.63;;;14.23;;
66143;SDS011;52947;50.842;6.084;2022-11-20T04:54:33;22.48;;;13.07;;
66143;SDS011;52947;50.842;6.084;2022-11-20T04:59:28;29.60;;;15.30;;
66143;SDS011;52947;50.842;6.084;2022-11-20T05:01:56;29.65;;;15.25;;
66143;SDS011;52947;50.842;6.084;2022-11-20T05:04:24;22.85;;;14.00;;
66143;SDS011;52947;50.842;6.084;2022-11-20T05:06:51;28.05;;;15.07;;
66143;SDS011;52947;50.842;6.084;2022-11-20T05:09:19;24.65;;;13.05;;
66143;SDS011;52947;50.842;6.084;2022-11-20T05:11:49;26.60;;;14.40;;
66143;SDS011;52947;50.842;6.084;2022-11-20T05:14:17;29.38;;;15.60;;
66143;SDS011;52947;50.842;6.084;2022-11-20T05:16:45;28.35;;;14.75;;
66143;SDS011;52947;50.842;6.084;2022-11-20T05:19:13;30.50;;;16.02;;
66143;SDS011;52947;50.842;6.084;2022-11-20T05:21:41;32.63;;;14.43;;
66143;SDS011;52947;50.842;6.084;2022-11-20T05:24:09;37.03;;;18.10;;
66143;SDS011;52947;50.842;6.084;2022-11-20T05:26:37;40.65;;;18.60;;
66143;SDS011;52947;50.842;6.084;2022-11-20T05:29:06;47.47;;;20.67;;
66143;SDS011;52947;50.842;6.084;2022-11-20T05:31:33;41.33;;;18.00;;
66143;SDS011;52947;50.842;6.084;2022-11-20T05:34:02;44.63;;;19.40;;
66143;SDS011;52947;50.842;6.084;2022-11-20T05:36:30;50.33;;;20.30;;
66143;SDS011;52947;50.842;6.084;2022-11-20T05:38:58;47.40;;;20.30;;
66143;SDS011;52947;50.842;6.084;2022-11-20T05:43:55;54.08;;;22.58;;
66143;SDS011;52947;50.842;6.084;2022-11-20T05:46:24;48.63;;;21.42;;
66143;SDS011;52947;50.842;6.084;2022-11-20T05:48:54;46.10;;;20.98;;
66143;SDS011;52947;50.842;6.084;2022-11-20T05:51:24;50.10;;;20.10;;
66143;SDS011;52947;50.842;6.084;2022-11-20T05:53:52;46.38;;;20.50;;
66143;SDS011;52947;50.842;6.084;2022-11-20T05:56:20;45.00;;;19.70;;
66143;SDS011;52947;50.842;6.084;2022-11-20T05:58:48;50.53;;;21.70;;
66143;SDS011;52947;50.842;6.084;2022-11-20T06:01:17;36.80;;;18.20;;
66143;SDS011;52947;50.842;6.084;2022-11-20T06:03:48;35.58;;;17.30;;
66143;SDS011;52947;50.842;6.084;2022-11-20T06:06:17;34.88;;;17.58;;
66143;SDS011;52947;50.842;6.084;2022-11-20T06:08:46;33.22;;;17.02;;
66143;SDS011;52947;50.842;6.084;2022-11-20T06:11:14;33.35;;;17.00;;
66143;SDS011;52947;50.842;6.084;2022-11-20T06:13:43;29.67;;;14.85;;
66143;SDS011;52947;50.842;6.084;2022-11-20T06:16:13;27.77;;;14.77;;
66143;SDS011;52947;50.842;6.084;2022-11-20T06:18:43;35.13;;;16.33;;
66143;SDS011;52947;50.842;6.084;2022-11-20T06:21:13;30.27;;;15.15;;
66143;SDS011;52947;50.842;6.084;2022-11-20T06:23:42;29.85;;;14.70;;
66143;SDS011;52947;50.842;6.084;2022-11-20T06:26:12;34.33;;;16.08;;
66143;SDS011;52947;50.842;6.084;2022-11-20T06:28:41;32.50;;;18.05;;
66143;SDS011;52947;50.842;6.084;2022-11-20T06:31:10;34.58;;;16.50;;
66143;SDS011;52947;50.842;6.084;2022-11-20T06:33:39;35.20;;;17.00;;
66143;SDS011;52947;50.842;6.084;2022-11-20T06:36:07;31.77;;;15.85;;
66143;SDS011;52947;50.842;6.084;2022-11-20T06:41:06;34.30;;;16.88;;
66143;SDS011;52947;50.842;6.084;2022-11-20T06:43:34;31.83;;;16.98;;
66143;SDS011;52947;50.842;6.084;2022-11-20T06:46:02;32.20;;;16.75;;
66143;SDS011;52947;50.842;6.084;2022-11-20T06:48:30;31.70;;;16.70;;
66143;SDS011;52947;50.842;6.084;2022-11-20T06:50:58;30.20;;;16.30;;
66143;SDS011;52947;50.842;6.084;2022-11-20T06:53:26;30.08;;;16.55;;
66143;SDS011;52947;50.842;6.084;2022-11-20T06:55:55;26.92;;;16.33;;
66143;SDS011;52947;50.842;6.084;2022-11-20T06:58:25;30.42;;;15.85;;
66143;SDS011;52947;50.842;6.084;2022-11-20T07:00:57;29.52;;;15.70;;
66143;SDS011;52947;50.842;6.084;2022-11-20T07:03:25;32.58;;;16.17;;
66143;SDS011;52947;50.842;6.084;2022-11-20T07:05:54;30.73;;;15.93;;
66143;SDS011;52947;50.842;6.084;2022-11-20T07:08:22;27.60;;;15.50;;
66143;SDS011;52947;50.842;6.084;2022-11-20T07:10:51;27.85;;;15.65;;
66143;SDS011;52947;50.842;6.084;2022-11-20T07:13:20;30.48;;;15.02;;
66143;SDS011;52947;50.842;6.084;2022-11-20T07:15:47;32.28;;;14.63;;
66143;SDS011;52947;50.842;6.084;2022-11-20T07:18:15;31.25;;;16.05;;
66143;SDS011;52947;50.842;6.084;2022-11-20T07:20:43;30.65;;;16.20;;
66143;SDS011;52947;50.842;6.084;2022-11-20T07:23:11;33.30;;;16.52;;
66143;SDS011;52947;50.842;6.084;2022-11-20T07:25:39;32.42;;;15.57;;
66143;SDS011;52947;50.842;6.084;2022-11-20T07:28:06;33.20;;;16.45;;
66143;SDS011;52947;50.842;6.084;2022-11-20T07:30:38;33.45;;;17.15;;
66143;SDS011;52947;50.842;6.084;2022-11-20T07:33:06;34.35;;;16.25;;
66143;SDS011;52947;50.842;6.084;2022-11-20T07:35:33;30.90;;;15.75;;
66143;SDS011;52947;50.842;6.084;2022-11-20T07:38:02;32.40;;;16.08;;
66143;SDS011;52947;50.842;6.084;2022-11-20T07:40:29;33.15;;;16.35;;
66143;SDS011;52947;50.842;6.084;2022-11-20T07:42:57;35.28;;;16.67;;
66143;SDS011;52947;50.842;6.084;2022-11-20T07:45:25;36.35;;;16.33;;
66143;SDS011;52947;50.842;6.084;2022-11-20T07:47:54;35.80;;;17.20;;
66143;SDS011;52947;50.842;6.084;2022-11-20T07:50:22;40.45;;;18.75;;
66143;SDS011;52947;50.842;6.084;2022-11-20T07:52:50;37.22;;;17.88;;
66143;SDS011;52947;50.842;6.084;2022-11-20T07:55:18;35.30;;;17.20;;
66143;SDS011;52947;50.842;6.084;2022-11-20T07:57:46;39.67;;;17.25;;
66143;SDS011;52947;50.842;6.084;2022-11-20T08:00:21;35.25;;;16.63;;
66143;SDS011;52947;50.842;6.084;2022-11-20T08:02:49;41.03;;;18.38;;
66143;SDS011;52947;50.842;6.084;2022-11-20T08:05:18;39.75;;;17.60;;
66143;SDS011;52947;50.842;6.084;2022-11-20T08:07:46;41.35;;;18.65;;
66143;SDS011;52947;50.842;6.084;2022-11-20T08:10:14;42.00;;;21.08;;
66143;SDS011;52947;50.842;6.084;2022-11-20T08:12:43;56.45;;;28.08;;
66143;SDS011;52947;50.842;6.084;2022-11-20T08:15:29;42.67;;;20.98;;
66143;SDS011;52947;50.842;6.084;2022-11-20T08:18:01;57.85;;;29.00;;
66143;SDS011;52947;50.842;6.084;2022-11-20T08:20:52;41.25;;;19.52;;
66143;SDS011;52947;50.842;6.084;2022-11-20T08:23:19;79.88;;;36.30;;
66143;SDS011;52947;50.842;6.084;2022-11-20T08:25:48;40.78;;;20.10;;
66143;SDS011;52947;50.842;6.084;2022-11-20T08:30:47;34.38;;;17.48;;
66143;SDS011;52947;50.842;6.084;2022-11-20T08:33:16;35.97;;;17.70;;
66143;SDS011;52947;50.842;6.084;2022-11-20T08:35:44;31.50;;;16.35;;
66143;SDS011;52947;50.842;6.084;2022-11-20T08:38:14;29.20;;;16.02;;
66143;SDS011;52947;50.842;6.084;2022-11-20T08:40:42;34.03;;;17.67;;
66143;SDS011;52947;50.842;6.084;2022-11-20T08:43:31;32.28;;;17.83;;
66143;SDS011;52947;50.842;6.084;2022-11-20T08:45:59;32.70;;;16.20;;
66143;SDS011;52947;50.842;6.084;2022-11-20T08:48:27;30.02;;;16.08;;
66143;SDS011;52947;50.842;6.084;2022-11-20T08:50:57;36.60;;;17.63;;
66143;SDS011;52947;50.842;6.084;2022-11-20T08:53:26;31.52;;;16.38;;
66143;SDS011;52947;50.842;6.084;2022-11-20T08:55:54;37.10;;;18.27;;
66143;SDS011;52947;50.842;6.084;2022-11-20T08:58:24;30.05;;;16.35;;
66143;SDS011;52947;50.842;6.084;2022-11-20T09:00:52;29.90;;;16.55;;
66143;SDS011;52947;50.842;6.084;2022-11-20T09:03:20;32.42;;;16.25;;
66143;SDS011;52947;50.842;6.084;2022-11-20T09:05:48;31.52;;;16.50;;
66143;SDS011;52947;50.842;6.084;2022-11-20T09:08:16;28.47;;;15.33;;
66143;SDS011;52947;50.842;6.084;2022-11-20T09:10:45;29.52;;;15.70;;
66143;SDS011;52947;50.842;6.084;2022-11-20T09:13:18;27.40;;;14.82;;
66143;SDS011;52947;50.842;6.084;2022-11-20T09:15:52;32.40;;;15.57;;
66143;SDS011;52947;50.842;6.084;2022-11-20T09:18:20;32.92;;;15.45;;
66143;SDS011;52947;50.842;6.084;2022-11-20T09:20:49;33.25;;;15.27;;
66143;SDS011;52947;50.842;6.084;2022-11-20T09:23:17;33.97;;;17.45;;
66143;SDS011;52947;50.842;6.084;2022-11-20T09:25:48;30.13;;;14.15;;
66143;SDS011;52947;50.842;6.084;2022-11-20T09:28:16;39.38;;;16.52;;
66143;SDS011;52947;50.842;6.084;2022-11-20T09:30:44;33.33;;;14.57;;
66143;SDS011;52947;50.842;6.084;2022-11-20T09:33:12;41.13;;;17.35;;
66143;SDS011;52947;50.842;6.084;2022-11-20T09:35:40;36.20;;;16.02;;
66143;SDS011;52947;50.842;6.084;2022-11-20T09:38:10;34.58;;;16.65;;
66143;SDS011;52947;50.842;6.084;2022-11-20T09:40:38;36.75;;;16.63;;
66143;SDS011;52947;50.842;6.084;2022-11-20T09:43:13;34.17;;;15.20;;
66143;SDS011;52947;50.842;6.084;2022-11-20T09:48:36;32.92;;;16.45;;
66143;SDS011;52947;50.842;6.084;2022-11-20T09:51:32;35.60;;;15.88;;
66143;SDS011;52947;50.842;6.084;2022-11-20T09:54:12;41.50;;;16.75;;
66143;SDS011;52947;50.842;6.084;2022-11-20T09:56:45;39.15;;;18.35;;
66143;SDS011;52947;50.842;6.084;2022-11-20T09:59:32;38.33;;;16.33;;
66143;SDS011;52947;50.842;6.084;2022-11-20T10:02:03;42.20;;;16.92;;
66143;SDS011;52947;50.842;6.084;2022-11-20T10:04:43;39.63;;;16.65;;
66143;SDS011;52947;50.842;6.084;2022-11-20T10:07:16;39.95;;;17.63;;
66143;SDS011;52947;50.842;6.084;2022-11-20T10:09:58;39.40;;;17.83;;
66143;SDS011;52947;50.842;6.084;2022-11-20T10:12:28;38.05;;;16.90;;
66143;SDS011;52947;50.842;6.084;2022-11-20T10:15:10;40.63;;;17.35;;
66143;SDS011;52947;50.842;6.084;2022-11-20T10:17:53;39.42;;;16.80;;
66143;SDS011;52947;50.842;6.084;2022-11-20T10:20:30;40.97;;;18.08;;
66143;SDS011;52947;50.842;6.084;2022-11-20T10:23:15;37.17;;;17.65;;
66143;SDS011;52947;50.842;6.084;2022-11-20T10:28:30;41.67;;;17.55;;
66143;SDS011;52947;50.842;6.084;2022-11-20T10:31:27;40.33;;;17.27;;
66143;SDS011;52947;50.842;6.084;2022-11-20T10:33:59;40.25;;;18.23;;
66143;SDS011;52947;50.842;6.084;2022-11-20T10:36:38;44.33;;;17.92;;
66143;SDS011;52947;50.842;6.084;2022-11-20T10:39:14;48.20;;;18.65;;
66143;SDS011;52947;50.842;6.084;2022-11-20T10:41:47;41.35;;;18.65;;
66143;SDS011;52947;50.842;6.084;2022-11-20T10:44:19;41.83;;;18.85;;
66143;SDS011;52947;50.842;6.084;2022-11-20T10:47:04;36.28;;;17.00;;
66143;SDS011;52947;50.842;6.084;2022-11-20T10:49:33;39.63;;;17.52;;
66143;SDS011;52947;50.842;6.084;2022-11-20T10:52:04;40.88;;;16.95;;
66143;SDS011;52947;50.842;6.084;2022-11-20T10:54:39;41.88;;;18.83;;
66143;SDS011;52947;50.842;6.084;2022-11-20T10:57:17;48.05;;;20.10;;
66143;SDS011;52947;50.842;6.084;2022-11-20T10:59:58;40.90;;;17.13;;
66143;SDS011;52947;50.842;6.084;2022-11-20T11:02:35;33.65;;;16.13;;
66143;SDS011;52947;50.842;6.084;2022-11-20T11:05:14;38.00;;;15.90;;
66143;SDS011;52947;50.842;6.084;2022-11-20T11:07:50;37.53;;;17.38;;
66143;SDS011;52947;50.842;6.084;2022-11-20T11:10:22;33.90;;;16.38;;
66143;SDS011;52947;50.842;6.084;2022-11-20T11:12:53;37.85;;;15.60;;
66143;SDS011;52947;50.842;6.084;2022-11-20T11:15:25;34.45;;;15.30;;
66143;SDS011;52947;50.842;6.084;2022-11-20T11:17:56;34.30;;;15.63;;
66143;SDS011;52947;50.842;6.084;2022-11-20T11:20:24;31.80;;;15.65;;
66143;SDS011;52947;50.842;6.084;2022-11-20T11:22:53;29.95;;;14.48;;
66143;SDS011;52947;50.842;6.084;2022-11-20T11:25:26;30.40;;;15.25;;
66143;SDS011;52947;50.842;6.084;2022-11-20T11:27:57;34.53;;;16.83;;
66143;SDS011;52947;50.842;6.084;2022-11-20T11:30:28;25.95;;;13.23;;
66143;SDS011;52947;50.842;6.084;2022-11-20T11:33:06;29.83;;;14.70;;
66143;SDS011;52947;50.842;6.084;2022-11-20T11:35:39;34.90;;;15.73;;
66143;SDS011;52947;50.842;6.084;2022-11-20T11:38:17;29.88;;;14.13;;
66143;SDS011;52947;50.842;6.084;2022-11-20T11:40:49;25.20;;;13.27;;
66143;SDS011;52947;50.842;6.084;2022-11-20T11:43:20;28.90;;;12.60;;
66143;SDS011;52947;50.842;6.084;2022-11-20T11:46:13;27.52;;;11.85;;
66143;SDS011;52947;50.842;6.084;2022-11-20T11:48:59;23.95;;;12.13;;
66143;SDS011;52947;50.842;6.084;2022-11-20T11:51:30;21.30;;;10.30;;
66143;SDS011;52947;50.842;6.084;2022-11-20T11:54:02;21.40;;;11.43;;
66143;SDS011;52947;50.842;6.084;2022-11-20T11:56:38;22.60;;;10.25;;
66143;SDS011;52947;50.842;6.084;2022-11-20T11:59:08;21.08;;;9.48;;
66143;SDS011;52947;50.842;6.084;2022-11-20T12:01:41;17.23;;;9.05;;
66143;SDS011;52947;50.842;6.084;2022-11-20T12:04:19;19.15;;;9.82;;
66143;SDS011;52947;50.842;6.084;2022-11-20T12:06:58;17.02;;;8.40;;
66143;SDS011;52947;50.842;6.084;2022-11-20T12:09:49;18.50;;;8.63;;
66143;SDS011;52947;50.842;6.084;2022-11-20T12:12:22;15.75;;;7.68;;
66143;SDS011;52947;50.842;6.084;2022-11-20T12:14:54;19.45;;;8.25;;
66143;SDS011;52947;50.842;6.084;2022-11-20T12:19:53;12.45;;;6.90;;
66143;SDS011;52947;50.842;6.084;2022-11-20T12:22:24;16.55;;;6.38;;
66143;SDS011;52947;50.842;6.084;2022-11-20T12:24:59;14.73;;;6.57;;
66143;SDS011;52947;50.842;6.084;2022-11-20T12:27:38;14.70;;;6.85;;
66143;SDS011;52947;50.842;6.084;2022-11-20T12:30:12;13.95;;;5.90;;
66143;SDS011;52947;50.842;6.084;2022-11-20T12:35:42;13.90;;;6.28;;
66143;SDS011;52947;50.842;6.084;2022-11-20T12:38:27;15.75;;;6.20;;
66143;SDS011;52947;50.842;6.084;2022-11-20T12:41:07;14.43;;;6.25;;
66143;SDS011;52947;50.842;6.084;2022-11-20T12:44:05;10.30;;;6.22;;
66143;SDS011;52947;50.842;6.084;2022-11-20T12:49:39;11.55;;;5.30;;
66143;SDS011;52947;50.842;6.084;2022-11-20T12:52:25;7.55;;;4.72;;
66143;SDS011;52947;50.842;6.084;2022-11-20T12:55:04;7.45;;;4.25;;
66143;SDS011;52947;50.842;6.084;2022-11-20T12:57:41;16.02;;;4.82;;
66143;SDS011;52947;50.842;6.084;2022-11-20T13:00:16;13.73;;;5.72;;
66143;SDS011;52947;50.842;6.084;2022-11-20T13:02:58;13.13;;;6.38;;
66143;SDS011;52947;50.842;6.084;2022-11-20T13:08:29;8.52;;;3.78;;
66143;SDS011;52947;50.842;6.084;2022-11-20T13:11:01;6.38;;;3.50;;
66143;SDS011;52947;50.842;6.084;2022-11-20T13:13:40;10.45;;;4.63;;
66143;SDS011;52947;50.842;6.084;2022-11-20T13:16:15;5.90;;;3.67;;
66143;SDS011;52947;50.842;6.084;2022-11-20T13:18:47;9.20;;;3.72;;
66143;SDS011;52947;50.842;6.084;2022-11-20T13:21:15;9.85;;;4.05;;
66143;SDS011;52947;50.842;6.084;2022-11-20T13:23:46;7.72;;;3.97;;
66143;SDS011;52947;50.842;6.084;2022-11-20T13:26:15;9.07;;;4.28;;
66143;SDS011;52947;50.842;6.084;2022-11-20T13:29:04;8.23;;;3.10;;
66143;SDS011;52947;50.842;6.084;2022-11-20T13:31:39;16.65;;;8.65;;
66143;SDS011;52947;50.842;6.084;2022-11-20T13:34:11;9.23;;;4.32;;
66143;SDS011;52947;50.842;6.084;2022-11-20T13:36:51;6.90;;;3.45;;
66143;SDS011;52947;50.842;6.084;2022-11-20T13:39:25;13.57;;;8.55;;
66143;SDS011;52947;50.842;6.084;2022-11-20T13:41:54;6.38;;;2.65;;
66143;SDS011;52947;50.842;6.084;2022-11-20T13:44:24;10.40;;;2.97;;
66143;SDS011;52947;50.842;6.084;2022-11-20T13:46:56;5.40;;;2.05;;
66143;SDS011;52947;50.842;6.084;2022-11-20T13:49:26;7.05;;;3.20;;
66143;SDS011;52947;50.842;6.084;2022-11-20T13:51:59;8.75;;;5.93;;
66143;SDS011;52947;50.842;6.084;2022-11-20T13:54:44;3.83;;;2.40;;
66143;SDS011;52947;50.842;6.084;2022-11-20T14:00:27;6.63;;;3.63;;
66143;SDS011;52947;50.842;6.084;2022-11-20T14:02:59;7.43;;;4.03;;
66143;SDS011;52947;50.842;6.084;2022-11-20T14:10:34;3.55;;;2.15;;
66143;SDS011;52947;50.842;6.084;2022-11-20T14:13:12;4.35;;;2.50;;
66143;SDS011;52947;50.842;6.084;2022-11-20T14:15:45;4.18;;;1.80;;
66143;SDS011;52947;50.842;6.084;2022-11-20T14:18:13;6.78;;;3.15;;
66143;SDS011;52947;50.842;6.084;2022-11-20T14:20:42;4.43;;;1.63;;
66143;SDS011;52947;50.842;6.084;2022-11-20T14:23:10;3.25;;;1.40;;
66143;SDS011;52947;50.842;6.084;2022-11-20T14:25:42;5.15;;;2.20;;
66143;SDS011;52947;50.842;6.084;2022-11-20T14:28:18;2.47;;;1.42;;
66143;SDS011;52947;50.842;6.084;2022-11-20T14:30:56;4.20;;;1.83;;
66143;SDS011;52947;50.842;6.084;2022-11-20T14:33:25;3.85;;;1.45;;
66143;SDS011;52947;50.842;6.084;2022-11-20T14:35:54;5.47;;;1.55;;
66143;SDS011;52947;50.842;6.084;2022-11-20T14:38:25;3.92;;;1.80;;
66143;SDS011;52947;50.842;6.084;2022-11-20T14:41:04;10.90;;;2.30;;
66143;SDS011;52947;50.842;6.084;2022-11-20T14:43:33;3.65;;;2.30;;
66143;SDS011;52947;50.842;6.084;2022-11-20T14:46:02;4.22;;;2.58;;
66143;SDS011;52947;50.842;6.084;2022-11-20T14:48:33;8.73;;;2.20;;
66143;SDS011;52947;50.842;6.084;2022-11-20T14:51:04;10.52;;;2.47;;
66143;SDS011;52947;50.842;6.084;2022-11-20T14:53:32;6.38;;;2.00;;
66143;SDS011;52947;50.842;6.084;2022-11-20T14:56:02;5.80;;;2.20;;
66143;SDS011;52947;50.842;6.084;2022-11-20T14:58:31;6.53;;;2.35;;
66143;SDS011;52947;50.842;6.084;2022-11-20T15:01:01;4.65;;;3.10;;
66143;SDS011;52947;50.842;6.084;2022-11-20T15:03:32;4.85;;;2.35;;
66143;SDS011;52947;50.842;6.084;2022-11-20T15:06:00;3.22;;;2.25;;
66143;SDS011;52947;50.842;6.084;2022-11-20T15:08:29;3.40;;;1.98;;
66143;SDS011;52947;50.842;6.084;2022-11-20T15:10:57;5.50;;;2.15;;
66143;SDS011;52947;50.842;6.084;2022-11-20T15:13:29;6.28;;;2.13;;
66143;SDS011;52947;50.842;6.084;2022-11-20T15:15:59;3.15;;;1.98;;
66143;SDS011;52947;50.842;6.084;2022-11-20T15:18:29;3.70;;;2.45;;
66143;SDS011;52947;50.842;6.084;2022-11-20T15:21:00;9.77;;;4.75;;
66143;SDS011;52947;50.842;6.084;2022-11-20T15:23:30;9.05;;;3.67;;
66143;SDS011;52947;50.842;6.084;2022-11-20T15:25:58;9.93;;;5.55;;
66143;SDS011;52947;50.842;6.084;2022-11-20T15:28:29;8.27;;;4.50;;
66143;SDS011;52947;50.842;6.084;2022-11-20T15:30:58;9.52;;;2.83;;
66143;SDS011;52947;50.842;6.084;2022-11-20T15:33:28;8.68;;;3.83;;